sensor_id;sensor_type;location;lat;lon;timestamp;pressure;altitude;pressure_sealevel;temperature;humidity
65534;BME280;53640;55.838;37.184;2022-08-03T00:02:04;99181.09;;;19.20;40.73
65534;BME280;53640;55.838;37.184;2022-08-03T00:04:30;99183.03;;;19.19;41.38
65534;BME280;53640;55.838;37.184;2022-08-03T00:06:56;99226.06;;;19.39;41.59
65534;BME280;53640;55.838;37.184;2022-08-03T00:09:23;99147.19;;;18.85;41.53
65534;BME280;53640;55.838;37.184;2022-08-03T00:11:49;99212.66;;;19.17;41.09
65534;BME280;53640;55.838;37.184;2022-08-03T00:14:15;99205.25;;;19.13;41.47
65534;BME280;53640;55.838;37.184;2022-08-03T00:16:41;99215.69;;;19.16;41.49
65534;BME280;53640;55.838;37.184;2022-08-03T00:19:08;99220.34;;;19.10;41.51
65534;BME280;53640;55.838;37.184;2022-08-03T00:21:34;99189.66;;;18.88;41.69
65534;BME280;53640;55.838;37.184;2022-08-03T00:24:00;99209.97;;;18.97;42.28
65534;BME280;53640;55.838;37.184;2022-08-03T00:26:27;99222.03;;;19.01;42.02
65534;BME280;53640;55.838;37.184;2022-08-03T00:28:53;99189.97;;;18.81;42.40
65534;BME280;53640;55.838;37.184;2022-08-03T00:31:20;99212.97;;;18.95;42.21
65534;BME280;53640;55.838;37.184;2022-08-03T00:33:47;99219.03;;;18.92;42.32
65534;BME280;53640;55.838;37.184;2022-08-03T00:36:13;99194.91;;;18.79;42.64
65534;BME280;53640;55.838;37.184;2022-08-03T00:38:39;99209.44;;;18.85;42.47
65534;BME280;53640;55.838;37.184;2022-08-03T00:41:06;99200.09;;;18.81;42.27
65534;BME280;53640;55.838;37.184;2022-08-03T00:43:32;99237.66;;;19.01;42.37
65534;BME280;53640;55.838;37.184;2022-08-03T00:45:58;99231.09;;;18.96;42.67
65534;BME280;53640;55.838;37.184;2022-08-03T00:48:24;99212.72;;;18.82;43.14
65534;BME280;53640;55.838;37.184;2022-08-03T00:50:52;99202.59;;;18.77;42.97
65534;BME280;53640;55.838;37.184;2022-08-03T00:53:18;99231.91;;;18.92;43.21
65534;BME280;53640;55.838;37.184;2022-08-03T00:55:45;99196.84;;;18.68;43.06
65534;BME280;53640;55.838;37.184;2022-08-03T00:58:11;99219.59;;;18.79;43.43
65534;BME280;53640;55.838;37.184;2022-08-03T01:00:39;99231.94;;;18.82;43.53
65534;BME280;53640;55.838;37.184;2022-08-03T01:03:07;99239.88;;;18.88;43.34
65534;BME280;53640;55.838;37.184;2022-08-03T01:05:57;99244.00;;;18.86;43.46
65534;BME280;53640;55.838;37.184;2022-08-03T01:09:01;99230.81;;;18.83;43.77
65534;BME280;53640;55.838;37.184;2022-08-03T01:11:38;99202.03;;;18.60;43.56
65534;BME280;53640;55.838;37.184;2022-08-03T01:14:20;99233.03;;;18.75;43.58
65534;BME280;53640;55.838;37.184;2022-08-03T01:16:56;99212.44;;;18.63;44.00
65534;BME280;53640;55.838;37.184;2022-08-03T01:30:39;99228.59;;;18.54;44.22
65534;BME280;53640;55.838;37.184;2022-08-03T01:33:16;99219.56;;;18.48;44.29
65534;BME280;53640;55.838;37.184;2022-08-03T01:35:47;99206.41;;;18.40;44.59
65534;BME280;53640;55.838;37.184;2022-08-03T01:38:27;99219.84;;;18.47;44.34
65534;BME280;53640;55.838;37.184;2022-08-03T01:40:55;99213.81;;;18.40;44.23
65534;BME280;53640;55.838;37.184;2022-08-03T01:43:26;99206.69;;;18.34;44.69
65534;BME280;53640;55.838;37.184;2022-08-03T01:45:55;99187.75;;;18.22;44.62
65534;BME280;53640;55.838;37.184;2022-08-03T01:48:22;99187.75;;;18.12;45.00
65534;BME280;53640;55.838;37.184;2022-08-03T01:50:50;99201.72;;;18.20;44.95
65534;BME280;53640;55.838;37.184;2022-08-03T01:53:17;99239.28;;;18.45;44.56
65534;BME280;53640;55.838;37.184;2022-08-03T01:55:46;99236.81;;;18.39;45.23
65534;BME280;53640;55.838;37.184;2022-08-03T01:58:15;99193.78;;;18.14;45.16
65534;BME280;53640;55.838;37.184;2022-08-03T02:00:43;99246.13;;;18.43;44.71
65534;BME280;53640;55.838;37.184;2022-08-03T02:03:12;99190.22;;;18.13;44.99
65534;BME280;53640;55.838;37.184;2022-08-03T02:05:41;99244.50;;;18.42;44.82
65534;BME280;53640;55.838;37.184;2022-08-03T02:08:09;99243.13;;;18.39;44.82
65534;BME280;53640;55.838;37.184;2022-08-03T02:10:40;99212.41;;;18.17;45.03
65534;BME280;53640;55.838;37.184;2022-08-03T02:13:08;99222.03;;;18.30;44.82
65534;BME280;53640;55.838;37.184;2022-08-03T02:15:38;99208.59;;;18.18;44.89
65534;BME280;53640;55.838;37.184;2022-08-03T02:18:06;99223.66;;;18.25;44.99
65534;BME280;53640;55.838;37.184;2022-08-03T02:20:34;99228.88;;;18.32;44.99
65534;BME280;53640;55.838;37.184;2022-08-03T02:23:02;99240.13;;;18.36;45.00
65534;BME280;53640;55.838;37.184;2022-08-03T02:25:29;99241.47;;;18.33;45.08
65534;BME280;53640;55.838;37.184;2022-08-03T02:27:57;99207.19;;;18.15;45.65
65534;BME280;53640;55.838;37.184;2022-08-03T02:30:35;99227.47;;;18.19;45.35
65534;BME280;53640;55.838;37.184;2022-08-03T02:33:10;99233.53;;;18.21;45.63
65534;BME280;53640;55.838;37.184;2022-08-03T02:35:38;99256.00;;;18.34;45.65
65534;BME280;53640;55.838;37.184;2022-08-03T02:38:07;99257.63;;;18.35;45.64
65534;BME280;53640;55.838;37.184;2022-08-03T02:40:35;99218.69;;;18.07;45.93
65534;BME280;53640;55.838;37.184;2022-08-03T02:43:05;99227.44;;;18.09;45.74
65534;BME280;53640;55.838;37.184;2022-08-03T02:45:35;99267.78;;;18.34;45.62
65534;BME280;53640;55.838;37.184;2022-08-03T02:48:04;99244.47;;;18.21;45.95
65534;BME280;53640;55.838;37.184;2022-08-03T02:50:32;99224.75;;;18.14;46.26
65534;BME280;53640;55.838;37.184;2022-08-03T02:53:02;99258.75;;;18.34;45.99
65534;BME280;53640;55.838;37.184;2022-08-03T02:55:29;99252.97;;;18.30;46.45
65534;BME280;53640;55.838;37.184;2022-08-03T02:57:59;99226.38;;;18.15;46.08
65534;BME280;53640;55.838;37.184;2022-08-03T03:00:30;99260.66;;;18.33;46.43
65534;BME280;53640;55.838;37.184;2022-08-03T03:02:58;99261.75;;;18.27;46.63
65534;BME280;53640;55.838;37.184;2022-08-03T03:05:25;99221.97;;;17.99;46.69
65534;BME280;53640;55.838;37.184;2022-08-03T03:07:51;99246.63;;;18.09;46.71
65534;BME280;53640;55.838;37.184;2022-08-03T03:10:20;99261.16;;;18.10;47.22
65534;BME280;53640;55.838;37.184;2022-08-03T03:12:50;99224.63;;;17.84;46.74
65534;BME280;53640;55.838;37.184;2022-08-03T03:15:17;99272.91;;;18.00;46.72
65534;BME280;53640;55.838;37.184;2022-08-03T03:17:44;99238.88;;;17.86;46.92
65534;BME280;53640;55.838;37.184;2022-08-03T03:20:11;99251.75;;;17.90;47.69
65534;BME280;53640;55.838;37.184;2022-08-03T03:22:38;99282.53;;;18.08;47.08
65534;BME280;53640;55.838;37.184;2022-08-03T03:25:07;99266.63;;;17.99;47.23
65534;BME280;53640;55.838;37.184;2022-08-03T03:27:34;99230.38;;;17.82;47.12
65534;BME280;53640;55.838;37.184;2022-08-03T03:30:01;99248.78;;;17.97;47.10
65534;BME280;53640;55.838;37.184;2022-08-03T03:32:30;99244.09;;;17.87;47.19
65534;BME280;53640;55.838;37.184;2022-08-03T03:34:57;99227.91;;;17.81;47.15
65534;BME280;53640;55.838;37.184;2022-08-03T03:37:25;99265.81;;;18.09;47.46
65534;BME280;53640;55.838;37.184;2022-08-03T03:39:55;99259.25;;;18.10;46.96
65534;BME280;53640;55.838;37.184;2022-08-03T03:42:21;99275.72;;;18.25;46.88
65534;BME280;53640;55.838;37.184;2022-08-03T03:44:48;99269.69;;;18.23;46.83
65534;BME280;53640;55.838;37.184;2022-08-03T03:47:14;99245.56;;;18.15;46.69
65534;BME280;53640;55.838;37.184;2022-08-03T03:49:41;99277.09;;;18.38;46.55
65534;BME280;53640;55.838;37.184;2022-08-03T03:52:09;99242.84;;;18.25;46.84
65534;BME280;53640;55.838;37.184;2022-08-03T03:54:43;99237.38;;;18.25;46.87
65534;BME280;53640;55.838;37.184;2022-08-03T03:57:10;99255.22;;;18.43;46.50
65534;BME280;53640;55.838;37.184;2022-08-03T03:59:38;99249.97;;;18.42;46.72
65534;BME280;53640;55.838;37.184;2022-08-03T04:02:06;99288.94;;;18.69;46.48
65534;BME280;53640;55.838;37.184;2022-08-03T04:04:32;99290.63;;;18.75;46.58
65534;BME280;53640;55.838;37.184;2022-08-03T04:07:18;99257.97;;;18.59;46.98
65534;BME280;53640;55.838;37.184;2022-08-03T04:10:09;99256.84;;;18.60;46.63
65534;BME280;53640;55.838;37.184;2022-08-03T04:12:58;99258.78;;;18.59;46.58
65534;BME280;53640;55.838;37.184;2022-08-03T04:15:27;99274.41;;;18.69;46.97
65534;BME280;53640;55.838;37.184;2022-08-03T04:17:56;99296.09;;;18.86;46.91
65534;BME280;53640;55.838;37.184;2022-08-03T04:20:27;99277.47;;;18.78;46.64
65534;BME280;53640;55.838;37.184;2022-08-03T04:22:55;99285.41;;;18.84;46.49
65534;BME280;53640;55.838;37.184;2022-08-03T04:25:30;99295.28;;;18.90;46.83
65534;BME280;53640;55.838;37.184;2022-08-03T04:28:00;99263.72;;;18.72;46.92
65534;BME280;53640;55.838;37.184;2022-08-03T04:30:27;99281.31;;;18.82;47.08
65534;BME280;53640;55.838;37.184;2022-08-03T04:32:55;99269.25;;;18.78;47.11
65534;BME280;53640;55.838;37.184;2022-08-03T04:35:28;99278.84;;;18.85;47.10
65534;BME280;53640;55.838;37.184;2022-08-03T04:38:00;99272.78;;;18.83;47.49
65534;BME280;53640;55.838;37.184;2022-08-03T04:40:33;99290.31;;;19.03;47.38
65534;BME280;53640;55.838;37.184;2022-08-03T04:43:00;99293.91;;;19.08;46.98
65534;BME280;53640;55.838;37.184;2022-08-03T04:45:29;99268.69;;;18.96;47.46
65534;BME280;53640;55.838;37.184;2022-08-03T04:47:56;99292.53;;;19.16;47.77
65534;BME280;53640;55.838;37.184;2022-08-03T04:50:23;99282.94;;;19.18;47.11
65534;BME280;53640;55.838;37.184;2022-08-03T04:53:04;99303.19;;;19.38;46.76
65534;BME280;53640;55.838;37.184;2022-08-03T04:55:32;99301.00;;;19.40;46.60
65534;BME280;53640;55.838;37.184;2022-08-03T04:58:00;99273.00;;;19.28;46.54
65534;BME280;53640;55.838;37.184;2022-08-03T05:00:27;99284.28;;;19.41;47.02
65534;BME280;53640;55.838;37.184;2022-08-03T05:02:54;99289.47;;;19.53;46.67
65534;BME280;53640;55.838;37.184;2022-08-03T05:05:21;99284.22;;;19.62;46.66
65534;BME280;53640;55.838;37.184;2022-08-03T05:07:48;99288.81;;;19.77;45.77
65534;BME280;53640;55.838;37.184;2022-08-03T05:10:15;99309.59;;;20.03;46.26
65534;BME280;53640;55.838;37.184;2022-08-03T05:12:42;99311.78;;;20.11;46.22
65534;BME280;53640;55.838;37.184;2022-08-03T05:15:09;99286.50;;;20.04;45.37
65534;BME280;53640;55.838;37.184;2022-08-03T05:17:35;99313.63;;;20.26;46.16
65534;BME280;53640;55.838;37.184;2022-08-03T05:20:02;99309.22;;;20.30;45.84
65534;BME280;53640;55.838;37.184;2022-08-03T05:22:29;99313.78;;;20.45;45.19
65534;BME280;53640;55.838;37.184;2022-08-03T05:24:55;99284.47;;;20.30;45.20
65534;BME280;53640;55.838;37.184;2022-08-03T05:27:22;99295.63;;;20.49;45.11
65534;BME280;53640;55.838;37.184;2022-08-03T05:29:49;99288.72;;;20.52;45.44
65534;BME280;53640;55.838;37.184;2022-08-03T05:32:16;99283.16;;;20.62;45.44
65534;BME280;53640;55.838;37.184;2022-08-03T05:34:43;99280.06;;;20.68;45.22
65534;BME280;53640;55.838;37.184;2022-08-03T05:37:09;99307.41;;;20.94;44.48
65534;BME280;53640;55.838;37.184;2022-08-03T05:39:36;99282.16;;;20.87;44.51
65534;BME280;53640;55.838;37.184;2022-08-03T05:42:03;99315.13;;;21.26;44.53
65534;BME280;53640;55.838;37.184;2022-08-03T05:44:29;99313.13;;;21.32;44.00
65534;BME280;53640;55.838;37.184;2022-08-03T05:46:57;99288.41;;;21.27;43.68
65534;BME280;53640;55.838;37.184;2022-08-03T05:49:23;99313.81;;;21.48;43.68
65534;BME280;53640;55.838;37.184;2022-08-03T05:51:49;99290.38;;;21.50;43.26
65534;BME280;53640;55.838;37.184;2022-08-03T05:54:15;99273.22;;;21.58;42.99
65534;BME280;53640;55.838;37.184;2022-08-03T05:56:42;99268.16;;;21.66;42.51
65534;BME280;53640;55.838;37.184;2022-08-03T05:59:08;99295.13;;;21.93;42.17
65534;BME280;53640;55.838;37.184;2022-08-03T06:01:35;99257.28;;;21.79;42.16
65534;BME280;53640;55.838;37.184;2022-08-03T06:04:02;99290.13;;;22.19;41.62
65534;BME280;53640;55.838;37.184;2022-08-03T06:06:28;99320.88;;;22.50;41.25
65534;BME280;53640;55.838;37.184;2022-08-03T06:08:54;99322.19;;;22.71;40.75
65534;BME280;53640;55.838;37.184;2022-08-03T06:11:20;99310.28;;;22.76;40.50
65534;BME280;53640;55.838;37.184;2022-08-03T06:13:47;99280.22;;;22.74;40.52
65534;BME280;53640;55.838;37.184;2022-08-03T06:16:13;99260.06;;;22.74;40.30
65534;BME280;53640;55.838;37.184;2022-08-03T06:18:39;99307.66;;;23.17;40.23
65534;BME280;53640;55.838;37.184;2022-08-03T06:21:06;99330.78;;;23.40;39.31
65534;BME280;53640;55.838;37.184;2022-08-03T06:23:32;99318.19;;;23.48;38.71
65534;BME280;53640;55.838;37.184;2022-08-03T06:25:59;99319.63;;;23.73;38.69
65534;BME280;53640;55.838;37.184;2022-08-03T06:28:25;99319.44;;;23.97;38.09
65534;BME280;53640;55.838;37.184;2022-08-03T06:30:51;99277.88;;;24.02;37.30
65534;BME280;53640;55.838;37.184;2022-08-03T06:33:17;99314.06;;;24.42;37.17
65534;BME280;53640;55.838;37.184;2022-08-03T06:35:44;99323.75;;;24.67;35.92
65534;BME280;53640;55.838;37.184;2022-08-03T06:38:10;99292.28;;;24.63;35.57
65534;BME280;53640;55.838;37.184;2022-08-03T06:40:37;99323.84;;;24.98;34.71
65534;BME280;53640;55.838;37.184;2022-08-03T06:43:06;99294.38;;;25.02;34.12
65534;BME280;53640;55.838;37.184;2022-08-03T06:45:33;99324.88;;;25.24;34.25
65534;BME280;53640;55.838;37.184;2022-08-03T06:48:02;99326.69;;;25.29;34.19
65534;BME280;53640;55.838;37.184;2022-08-03T06:50:28;99288.25;;;25.14;33.81
65534;BME280;53640;55.838;37.184;2022-08-03T06:52:55;99275.84;;;25.11;33.73
65534;BME280;53640;55.838;37.184;2022-08-03T06:55:21;99317.13;;;25.44;33.46
65534;BME280;53640;55.838;37.184;2022-08-03T06:57:47;99297.03;;;25.38;32.99
65534;BME280;53640;55.838;37.184;2022-08-03T07:00:14;99303.31;;;25.53;33.04
65534;BME280;53640;55.838;37.184;2022-08-03T07:02:41;99280.59;;;25.42;32.87
65534;BME280;53640;55.838;37.184;2022-08-03T07:05:08;99284.88;;;25.48;31.61
65534;BME280;53640;55.838;37.184;2022-08-03T07:07:35;99282.75;;;25.54;31.92
65534;BME280;53640;55.838;37.184;2022-08-03T07:10:03;99302.59;;;25.69;31.17
65534;BME280;53640;55.838;37.184;2022-08-03T07:12:31;99310.34;;;25.90;31.21
65534;BME280;53640;55.838;37.184;2022-08-03T07:15:01;99323.94;;;26.09;30.83
65534;BME280;53640;55.838;37.184;2022-08-03T07:17:33;99323.78;;;26.14;29.96
65534;BME280;53640;55.838;37.184;2022-08-03T07:20:04;99287.53;;;26.02;29.45
65534;BME280;53640;55.838;37.184;2022-08-03T07:22:32;99316.78;;;26.25;30.22
65534;BME280;53640;55.838;37.184;2022-08-03T07:24:59;99292.25;;;26.10;30.19
65534;BME280;53640;55.838;37.184;2022-08-03T07:27:25;99303.88;;;26.29;30.04
65534;BME280;53640;55.838;37.184;2022-08-03T07:29:53;99333.19;;;26.53;29.50
65534;BME280;53640;55.838;37.184;2022-08-03T07:32:20;99301.00;;;26.43;29.23
65534;BME280;53640;55.838;37.184;2022-08-03T07:34:46;99323.53;;;26.59;28.39
65534;BME280;53640;55.838;37.184;2022-08-03T07:37:13;99282.22;;;26.31;28.87
65534;BME280;53640;55.838;37.184;2022-08-03T07:39:39;99253.28;;;26.15;27.95
65534;BME280;53640;55.838;37.184;2022-08-03T07:42:05;99346.91;;;26.75;27.22
65534;BME280;53640;55.838;37.184;2022-08-03T07:44:32;99337.78;;;26.75;27.47
65534;BME280;53640;55.838;37.184;2022-08-03T07:46:58;99339.88;;;26.78;26.41
65534;BME280;53640;55.838;37.184;2022-08-03T07:49:25;99351.50;;;26.88;26.13
65534;BME280;53640;55.838;37.184;2022-08-03T07:51:52;99314.06;;;26.77;27.01
65534;BME280;53640;55.838;37.184;2022-08-03T07:54:38;99352.50;;;27.01;26.92
65534;BME280;53640;55.838;37.184;2022-08-03T07:57:04;99308.22;;;26.87;26.44
65534;BME280;53640;55.838;37.184;2022-08-03T07:59:31;99313.75;;;27.05;26.46
65534;BME280;53640;55.838;37.184;2022-08-03T08:02:01;99312.75;;;27.18;25.71
65534;BME280;53640;55.838;37.184;2022-08-03T08:04:27;99306.69;;;27.25;26.01
65534;BME280;53640;55.838;37.184;2022-08-03T08:06:53;99305.03;;;27.41;25.74
65534;BME280;53640;55.838;37.184;2022-08-03T08:09:19;99311.84;;;27.52;25.46
65534;BME280;53640;55.838;37.184;2022-08-03T08:11:46;99337.56;;;27.87;26.00
65534;BME280;53640;55.838;37.184;2022-08-03T08:14:12;99329.34;;;28.00;25.64
65534;BME280;53640;55.838;37.184;2022-08-03T08:16:38;99351.78;;;28.24;25.22
65534;BME280;53640;55.838;37.184;2022-08-03T08:21:31;99350.91;;;28.32;25.04
65534;BME280;53640;55.838;37.184;2022-08-03T08:23:57;99260.94;;;27.90;25.55
65534;BME280;53640;55.838;37.184;2022-08-03T08:26:23;99298.63;;;28.17;25.01
65534;BME280;53640;55.838;37.184;2022-08-03T08:28:50;99343.66;;;28.49;25.15
65534;BME280;53640;55.838;37.184;2022-08-03T08:31:17;99332.34;;;28.66;24.61
65534;BME280;53640;55.838;37.184;2022-08-03T08:33:43;99326.38;;;28.76;24.60
65534;BME280;53640;55.838;37.184;2022-08-03T08:36:10;99307.03;;;28.59;24.77
65534;BME280;53640;55.838;37.184;2022-08-03T08:38:36;99296.94;;;28.46;24.76
65534;BME280;53640;55.838;37.184;2022-08-03T08:41:02;99301.06;;;28.40;25.27
65534;BME280;53640;55.838;37.184;2022-08-03T08:43:29;99345.63;;;28.48;25.29
65534;BME280;53640;55.838;37.184;2022-08-03T08:45:56;99329.13;;;28.34;25.29
65534;BME280;53640;55.838;37.184;2022-08-03T08:48:24;99343.34;;;28.63;25.36
65534;BME280;53640;55.838;37.184;2022-08-03T08:50:54;99339.53;;;28.88;24.80
65534;BME280;53640;55.838;37.184;2022-08-03T08:53:24;99318.56;;;28.91;24.54
65534;BME280;53640;55.838;37.184;2022-08-03T08:55:54;99299.28;;;28.86;24.09
65534;BME280;53640;55.838;37.184;2022-08-03T08:58:25;99293.03;;;28.68;24.47
65534;BME280;53640;55.838;37.184;2022-08-03T09:00:53;99341.59;;;28.79;24.21
65534;BME280;53640;55.838;37.184;2022-08-03T09:03:20;99332.13;;;28.92;24.31
65534;BME280;53640;55.838;37.184;2022-08-03T09:05:47;99351.50;;;29.30;23.79
65534;BME280;53640;55.838;37.184;2022-08-03T09:08:14;99347.84;;;29.51;23.72
65534;BME280;53640;55.838;37.184;2022-08-03T09:10:40;99296.94;;;29.08;23.50
65534;BME280;53640;55.838;37.184;2022-08-03T09:13:06;99320.25;;;29.04;24.27
65534;BME280;53640;55.838;37.184;2022-08-03T09:15:34;99316.44;;;28.88;24.21
65534;BME280;53640;55.838;37.184;2022-08-03T09:18:02;99314.50;;;28.67;24.45
65534;BME280;53640;55.838;37.184;2022-08-03T09:20:31;99322.09;;;28.58;24.79
65534;BME280;53640;55.838;37.184;2022-08-03T09:23:08;99309.25;;;28.87;23.96
65534;BME280;53640;55.838;37.184;2022-08-03T09:25:38;99279.69;;;29.27;23.58
65534;BME280;53640;55.838;37.184;2022-08-03T09:28:23;99332.56;;;30.18;22.46
65534;BME280;53640;55.838;37.184;2022-08-03T09:30:58;99309.75;;;30.69;22.07
65534;BME280;53640;55.838;37.184;2022-08-03T09:33:25;99341.34;;;31.26;21.73
65534;BME280;53640;55.838;37.184;2022-08-03T09:35:51;99351.81;;;31.57;21.37
65534;BME280;53640;55.838;37.184;2022-08-03T09:38:19;99346.94;;;31.85;20.48
65534;BME280;53640;55.838;37.184;2022-08-03T09:40:49;99318.69;;;31.90;20.08
65534;BME280;53640;55.838;37.184;2022-08-03T09:43:15;99353.13;;;32.42;20.30
65534;BME280;53640;55.838;37.184;2022-08-03T09:45:43;99234.94;;;32.01;19.28
65534;BME280;53640;55.838;37.184;2022-08-03T09:48:23;99336.25;;;32.93;18.97
65534;BME280;53640;55.838;37.184;2022-08-03T09:50:51;99335.03;;;33.13;19.03
65534;BME280;53640;55.838;37.184;2022-08-03T09:53:19;99309.31;;;33.08;19.29
65534;BME280;53640;55.838;37.184;2022-08-03T09:55:56;99346.16;;;33.49;18.44
65534;BME280;53640;55.838;37.184;2022-08-03T09:58:27;99342.72;;;33.59;18.87
65534;BME280;53640;55.838;37.184;2022-08-03T10:00:58;99346.06;;;33.88;18.31
65534;BME280;53640;55.838;37.184;2022-08-03T10:03:28;99305.06;;;34.09;18.37
65534;BME280;53640;55.838;37.184;2022-08-03T10:05:54;99352.44;;;34.64;17.76
65534;BME280;53640;55.838;37.184;2022-08-03T10:08:21;99335.88;;;34.86;17.67
65534;BME280;53640;55.838;37.184;2022-08-03T10:10:49;99240.53;;;34.43;17.49
65534;BME280;53640;55.838;37.184;2022-08-03T10:13:19;99342.63;;;35.48;16.91
65534;BME280;53640;55.838;37.184;2022-08-03T10:15:45;99307.09;;;35.33;17.33
65534;BME280;53640;55.838;37.184;2022-08-03T10:18:12;99349.56;;;35.58;17.04
65534;BME280;53640;55.838;37.184;2022-08-03T10:20:45;99303.97;;;35.45;17.25
65534;BME280;53640;55.838;37.184;2022-08-03T10:23:13;99347.56;;;36.03;16.84
65534;BME280;53640;55.838;37.184;2022-08-03T10:25:42;99318.25;;;35.63;16.75
65534;BME280;53640;55.838;37.184;2022-08-03T10:28:12;99334.44;;;35.77;16.77
65534;BME280;53640;55.838;37.184;2022-08-03T10:30:47;99299.22;;;35.53;16.43
65534;BME280;53640;55.838;37.184;2022-08-03T10:33:20;99342.13;;;35.39;16.58
65534;BME280;53640;55.838;37.184;2022-08-03T10:35:55;99344.34;;;35.57;16.87
65534;BME280;53640;55.838;37.184;2022-08-03T10:38:37;99360.69;;;35.85;16.45
65534;BME280;53640;55.838;37.184;2022-08-03T10:41:06;99322.53;;;35.94;16.34
65534;BME280;53640;55.838;37.184;2022-08-03T10:43:49;99292.88;;;36.08;16.50
65534;BME280;53640;55.838;37.184;2022-08-03T10:46:20;99328.03;;;36.32;16.41
65534;BME280;53640;55.838;37.184;2022-08-03T10:48:47;99326.13;;;35.91;16.32
65534;BME280;53640;55.838;37.184;2022-08-03T10:51:15;99346.06;;;35.68;16.42
65534;BME280;53640;55.838;37.184;2022-08-03T10:53:42;99290.59;;;35.35;16.63
65534;BME280;53640;55.838;37.184;2022-08-03T10:59:55;99334.88;;;36.27;16.44
65534;BME280;53640;55.838;37.184;2022-08-03T11:02:05;99344.81;;;36.72;16.25
65534;BME280;53640;55.838;37.184;2022-08-03T11:04:34;99321.72;;;36.53;16.27
65534;BME280;53640;55.838;37.184;2022-08-03T11:09:43;99346.94;;;37.01;15.93
65534;BME280;53640;55.838;37.184;2022-08-03T11:12:33;99351.91;;;37.29;15.91
65534;BME280;53640;55.838;37.184;2022-08-03T11:15:05;99355.94;;;37.35;15.62
65534;BME280;53640;55.838;37.184;2022-08-03T11:17:33;99351.09;;;37.39;15.60
65534;BME280;53640;55.838;37.184;2022-08-03T11:19:59;99319.22;;;37.31;15.44
65534;BME280;53640;55.838;37.184;2022-08-03T11:22:47;99349.59;;;37.77;15.20
65534;BME280;53640;55.838;37.184;2022-08-03T11:25:15;99338.22;;;37.52;15.01
65534;BME280;53640;55.838;37.184;2022-08-03T11:27:42;99327.25;;;37.22;15.08
65534;BME280;53640;55.838;37.184;2022-08-03T11:30:31;99347.94;;;37.62;15.38
65534;BME280;53640;55.838;37.184;2022-08-03T11:32:57;99343.94;;;37.77;15.13
65534;BME280;53640;55.838;37.184;2022-08-03T11:35:30;99351.19;;;38.00;15.04
65534;BME280;53640;55.838;37.184;2022-08-03T11:40:42;99342.22;;;38.44;14.57
65534;BME280;53640;55.838;37.184;2022-08-03T11:46:14;99350.75;;;38.48;14.39
65534;BME280;53640;55.838;37.184;2022-08-03T11:48:48;99330.56;;;38.31;14.54
65534;BME280;53640;55.838;37.184;2022-08-03T11:53:55;99326.91;;;38.45;14.24
65534;BME280;53640;55.838;37.184;2022-08-03T11:56:23;99322.88;;;38.50;14.46
65534;BME280;53640;55.838;37.184;2022-08-03T11:58:52;99343.88;;;38.56;14.02
65534;BME280;53640;55.838;37.184;2022-08-03T12:01:21;99342.97;;;38.77;14.50
65534;BME280;53640;55.838;37.184;2022-08-03T12:03:48;99318.69;;;38.94;14.48
65534;BME280;53640;55.838;37.184;2022-08-03T12:06:15;99314.44;;;39.20;14.35
65534;BME280;53640;55.838;37.184;2022-08-03T12:08:43;99336.28;;;39.30;13.97
65534;BME280;53640;55.838;37.184;2022-08-03T12:11:12;99343.31;;;39.63;13.83
65534;BME280;53640;55.838;37.184;2022-08-03T12:13:48;99301.69;;;39.56;14.03
65534;BME280;53640;55.838;37.184;2022-08-03T12:16:17;99330.59;;;39.89;13.56
65534;BME280;53640;55.838;37.184;2022-08-03T12:19:07;99332.06;;;40.08;13.15
65534;BME280;53640;55.838;37.184;2022-08-03T12:21:33;99257.88;;;39.68;13.38
65534;BME280;53640;55.838;37.184;2022-08-03T12:24:02;99340.19;;;40.44;13.02
65534;BME280;53640;55.838;37.184;2022-08-03T12:26:29;99336.28;;;40.30;13.13
65534;BME280;53640;55.838;37.184;2022-08-03T12:28:56;99311.66;;;40.20;13.36
65534;BME280;53640;55.838;37.184;2022-08-03T12:31:23;99330.00;;;40.50;13.45
65534;BME280;53640;55.838;37.184;2022-08-03T12:36:27;99317.16;;;40.72;12.70
65534;BME280;53640;55.838;37.184;2022-08-03T12:39:13;99343.88;;;40.78;12.53
65534;BME280;53640;55.838;37.184;2022-08-03T12:41:40;99326.47;;;40.73;12.76
65534;BME280;53640;55.838;37.184;2022-08-03T12:44:09;99309.22;;;40.60;12.46
65534;BME280;53640;55.838;37.184;2022-08-03T12:46:40;99256.06;;;40.30;12.76
65534;BME280;53640;55.838;37.184;2022-08-03T12:49:10;99328.84;;;40.44;12.24
65534;BME280;53640;55.838;37.184;2022-08-03T12:51:59;99322.00;;;39.48;13.35
65534;BME280;53640;55.838;37.184;2022-08-03T12:54:27;99290.84;;;38.71;13.94
65534;BME280;53640;55.838;37.184;2022-08-03T12:59:43;99330.28;;;39.14;13.75
65534;BME280;53640;55.838;37.184;2022-08-03T13:02:22;99322.19;;;39.08;13.83
65534;BME280;53640;55.838;37.184;2022-08-03T13:04:51;99326.59;;;39.27;13.67
65534;BME280;53640;55.838;37.184;2022-08-03T13:07:19;99288.63;;;39.14;13.50
65534;BME280;53640;55.838;37.184;2022-08-03T13:09:48;99325.47;;;39.03;13.83
65534;BME280;53640;55.838;37.184;2022-08-03T13:12:20;99328.50;;;38.46;14.35
65534;BME280;53640;55.838;37.184;2022-08-03T13:14:51;99328.97;;;37.87;14.69
65534;BME280;53640;55.838;37.184;2022-08-03T13:17:17;99341.03;;;37.34;15.03
65534;BME280;53640;55.838;37.184;2022-08-03T13:19:45;99278.53;;;36.34;15.59
65534;BME280;53640;55.838;37.184;2022-08-03T13:22:13;99345.25;;;36.16;16.02
65534;BME280;53640;55.838;37.184;2022-08-03T13:24:41;99301.50;;;35.37;16.28
65534;BME280;53640;55.838;37.184;2022-08-03T13:27:07;99331.31;;;35.08;16.54
65534;BME280;53640;55.838;37.184;2022-08-03T13:29:34;99313.00;;;34.57;16.89
65534;BME280;53640;55.838;37.184;2022-08-03T13:32:01;99328.53;;;34.21;17.62
65534;BME280;53640;55.838;37.184;2022-08-03T13:34:27;99324.34;;;33.84;18.21